CDT,Max TemperatureF,Mean TemperatureF,Min TemperatureF,Max Dew PointF,MeanDew PointF,Min DewpointF,Max Humidity, Mean Humidity, Min Humidity, Max Sea Level PressureIn, Mean Sea Level PressureIn, Min Sea Level PressureIn, Max VisibilityMiles, Mean VisibilityMiles, Min VisibilityMiles, Max Wind SpeedMPH, Mean Wind SpeedMPH, Max Gust SpeedMPH,PrecipitationIn, CloudCover, Events, WindDirDegrees
2013-8-1,85,73,61,67,63,60,93,69,44,30.09,30.03,29.91,10,10,3,13,5,16,0.00,0,,226
2013-8-2,85,75,65,67,63,57,84,68,51,29.99,29.92,29.88,10,10,10,16,5,24,0.00,1,,333
2013-8-3,81,72,62,60,58,55,90,68,45,30.17,30.09,30.00,10,10,10,12,6,16,0.00,0,,39
2013-8-4,81,69,57,62,58,53,86,67,48,30.19,30.13,30.06,10,10,2,13,5,21,0.00,2,,117
2013-8-5,85,76,66,69,66,62,93,77,61,30.04,29.94,29.83,10,9,0,15,5,18,0.00,5,Fog,200
2013-8-6,90,79,67,72,69,66,100,74,47,29.88,29.83,29.78,10,7,0,16,4,22,T,1,Fog-Rain,173
2013-8-7,86,76,65,72,65,61,90,67,44,29.99,29.89,29.79,10,10,3,17,7,22,0.03,1,Rain-Thunderstorm,358
2013-8-8,79,70,60,63,61,58,93,74,54,30.01,30.00,29.95,10,10,10,9,4,14,0.00,0,,40
2013-8-9,83,73,63,67,62,60,87,67,47,30.13,30.05,30.01,10,10,8,9,3,12,T,1,,4
2013-8-10,83,70,57,59,57,55,93,67,40,30.21,30.16,30.11,10,10,9,8,3,9,0.00,0,,73
2013-8-11,86,74,61,63,59,57,84,62,40,30.14,30.08,30.00,10,10,9,15,7,18,0.00,0,,203
2013-8-12,84,74,64,68,63,57,87,66,45,30.06,30.01,29.97,10,10,10,15,6,18,0.00,3,,9
2013-8-13,81,69,57,58,55,51,93,66,39,30.16,30.10,30.05,10,10,10,15,6,20,0.00,0,,26
2013-8-14,78,65,52,54,51,47,86,61,36,30.23,30.17,30.12,10,10,9,9,4,14,0.00,1,,104
2013-8-15,65,62,59,58,55,50,90,78,65,30.16,30.13,30.09,10,10,5,8,3,12,0.28,8,Rain,114
2013-8-16,78,68,57,55,53,49,93,66,38,30.19,30.16,30.13,10,10,10,10,3,16,0.00,2,,86
2013-8-17,81,68,54,58,53,49,87,60,33,30.22,30.17,30.12,10,10,7,10,3,15,0.00,1,,88
2013-8-18,82,70,58,58,55,53,86,63,39,30.18,30.13,30.08,10,10,10,12,6,16,0.00,1,,164
2013-8-19,85,72,59,64,60,57,87,67,46,30.11,30.05,29.99,10,9,6,14,7,18,0.00,1,,184
2013-8-20,89,77,65,64,63,61,87,64,41,30.04,30.00,29.96,10,10,10,18,10,25,0.00,1,,187
2013-8-21,92,80,68,66,64,62,87,63,38,30.04,30.01,29.97,10,10,10,16,9,22,0.00,0,,195
2013-8-22,85,78,70,69,67,66,90,73,55,30.09,30.05,30.01,10,9,6,10,5,15,0.00,0,,123
2013-8-23,92,81,69,71,67,63,100,71,41,30.12,30.07,30.01,10,6,0,10,5,15,0.00,2,Fog,126
2013-8-24,93,82,70,70,67,64,90,66,41,30.14,30.09,30.05,10,9,5,17,9,23,0.00,0,,166
2013-8-25,94,81,68,69,65,61,81,57,33,30.19,30.13,30.08,10,10,9,18,9,23,0.00,0,,182
2013-8-26,96,84,71,70,67,64,90,63,36,30.13,30.07,30.00,10,9,6,17,10,23,0.00,0,,209
2013-8-27,96,84,72,68,66,63,90,63,36,30.00,29.96,29.91,10,10,10,23,13,31,0.00,0,,219
2013-8-28,96,84,71,67,64,60,79,55,31,30.01,29.98,29.95,10,10,10,17,8,22,0.00,0,,246
2013-8-29,95,82,69,71,69,65,84,62,39,30.04,29.98,29.92,10,10,10,15,6,18,0.00,0,,194
2013-8-30,101,87,72,69,65,59,90,58,26,29.93,29.86,29.79,10,10,10,17,7,22,0.00,1,,231
2013-8-31,87,77,67,72,68,65,93,72,50,29.85,29.81,29.78,10,10,6,15,4,30,0.00,0,,331